This is the latest recevied weather packets stored in our database for station/object K4AMF. If no packets are shown the sender has not sent any weather packets the latest 10 day(s).
| Time | Temp. | Humidity | Pressure | Rain* | Wind** | Luminosity | Snow |
|---|---|---|---|---|---|---|---|
| 1778085903 | 30° C | 60% | 1017.8 hPa | 0 mm | - | 601 W/m² | - |
| 1778085601 | 30.56° C | 58% | 1017.9 hPa | 0 mm | - | 601 W/m² | - |
| 1778085295 | 28.89° C | 63% | 1018 hPa | 0 mm | - | 636 W/m² | - |
| 1778084990 | 28.89° C | 63% | 1018.1 hPa | 0 mm | - | 577 W/m² | - |
| 1778084688 | 28.89° C | 63% | 1018.3 hPa | 0 mm | - | 647 W/m² | - |
| 1778084380 | 28.89° C | 63% | 1018.3 hPa | 0 mm | - | 710 W/m² | - |
| 1778084077 | 28.89° C | 64% | 1018.4 hPa | 0 mm | - | 630 W/m² | - |
| 1778083769 | 28.89° C | 63% | 1018.4 hPa | 0 mm | - | 744 W/m² | - |
| 1778083467 | 28.33° C | 65% | 1018.3 hPa | 0 mm | - | 696 W/m² | - |
| 1778083164 | 28.33° C | 65% | 1018.5 hPa | 0 mm | - | 674 W/m² | - |
| 1778082861 | 28.89° C | 65% | 1018.5 hPa | 0 mm | - | 639 W/m² | - |
| 1778081743 | 27.22° C | 69% | 1018.5 hPa | 0 mm | - | 673 W/m² | - |
| 1778081440 | 27.78° C | 68% | 1018.3 hPa | 0 mm | - | 749 W/m² | - |
| 1778081137 | 27.22° C | 69% | 1018.3 hPa | 0 mm | - | 742 W/m² | - |
| 1778080835 | 27.22° C | 69% | 1018.3 hPa | 0 mm | - | 699 W/m² | - |
| 1778080533 | 26.67° C | 70% | 1018.4 hPa | 0 mm | - | 812 W/m² | - |
| 1778080230 | 26.67° C | 70% | 1018.5 hPa | 0 mm | - | 647 W/m² | - |
| 1778079926 | 26.67° C | 70% | 1018.4 hPa | 0 mm | - | 748 W/m² | - |
| 1778079623 | 27.22° C | 69% | 1018.3 hPa | 0 mm | - | 592 W/m² | - |
| 1778079320 | 27.22° C | 69% | 1018.4 hPa | 0 mm | - | 675 W/m² | - |
| 1778079017 | 26.67° C | 71% | 1018.4 hPa | 0 mm | - | 728 W/m² | - |
| 1778078714 | 26.11° C | 73% | 1018 hPa | 0 mm | - | 552 W/m² | - |
| 1778078412 | 25.56° C | 74% | 1018 hPa | 0 mm | - | 573 W/m² | - |
| 1778078109 | 26.11° C | 73% | 1018.2 hPa | 0 mm | - | 635 W/m² | - |
| 1778077808 | 26.11° C | 71% | 1018 hPa | 0 mm | - | 663 W/m² | - |
* Rain latest hour (hover to see other rain measurements)
** Current wind speed in m/s (hover to see current wind gust speed)